createdAt,value
2022-08-28T00:00:41.714Z,20.15
2022-08-28T00:03:13.298Z,20.11
2022-08-28T00:05:42.783Z,20.12
2022-08-28T00:08:13.985Z,20.12
2022-08-28T00:10:43.673Z,20.10
2022-08-28T00:13:18.518Z,19.86
2022-08-28T00:15:49.293Z,20.00
2022-08-28T00:18:19.395Z,20.01
2022-08-28T00:20:48.964Z,19.97
2022-08-28T00:23:18.141Z,19.93
2022-08-28T00:25:46.480Z,19.91
2022-08-28T00:28:23.589Z,19.82
2022-08-28T00:30:55.669Z,19.82
2022-08-28T00:33:29.382Z,19.78
2022-08-28T00:35:58.997Z,19.95
2022-08-28T00:38:29.450Z,19.90
2022-08-28T00:41:03.970Z,19.92
2022-08-28T00:43:42.454Z,19.84
2022-08-28T00:46:14.310Z,19.86
2022-08-28T00:48:44.210Z,19.83
2022-08-28T00:51:45.765Z,19.88
2022-08-28T00:54:14.287Z,19.71
2022-08-28T00:56:44.728Z,19.89
2022-08-28T00:59:18.205Z,19.28
2022-08-28T01:01:48.543Z,19.92
2022-08-28T01:04:21.664Z,19.95
2022-08-28T01:06:53.512Z,19.94
2022-08-28T01:09:24.450Z,19.94
2022-08-28T01:11:57.514Z,19.91
2022-08-28T01:14:26.954Z,19.49
2022-08-28T01:16:56.152Z,19.86
2022-08-28T01:19:33.410Z,19.88
2022-08-28T01:22:16.612Z,19.88
2022-08-28T01:24:48.674Z,19.81
2022-08-28T01:27:17.297Z,19.88
2022-08-28T01:29:45.681Z,19.79
2022-08-28T01:32:30.423Z,19.85
2022-08-28T01:34:58.902Z,19.84
2022-08-28T01:37:27.182Z,19.80
2022-08-28T01:39:56.984Z,19.82
2022-08-28T01:42:26.078Z,19.83
2022-08-28T01:44:54.903Z,19.83
2022-08-28T01:47:23.882Z,19.86
2022-08-28T01:49:52.151Z,19.82
2022-08-28T01:52:25.460Z,19.82
2022-08-28T01:54:56.379Z,19.80
2022-08-28T01:57:27.369Z,19.75
2022-08-28T01:59:55.989Z,19.76
2022-08-28T02:02:24.592Z,19.77
2022-08-28T02:04:53.873Z,19.77
2022-08-28T02:07:22.137Z,19.76
2022-08-28T02:09:50.438Z,19.75
2022-08-28T02:12:20.633Z,19.71
2022-08-28T02:14:48.940Z,19.67
2022-08-28T02:17:17.178Z,19.67
2022-08-28T02:19:45.405Z,19.60
2022-08-28T02:22:13.707Z,19.61
2022-08-28T02:24:42.040Z,19.55
2022-08-28T02:27:10.623Z,19.56
2022-08-28T02:29:40.780Z,19.50
2022-08-28T02:32:09.211Z,19.45
2022-08-28T02:34:39.166Z,19.49
2022-08-28T02:37:08.729Z,19.48
2022-08-28T02:39:37.111Z,19.44
2022-08-28T02:42:05.707Z,19.47
2022-08-28T02:44:35.388Z,19.32
2022-08-28T02:47:06.046Z,19.48
2022-08-28T02:49:36.127Z,19.46
2022-08-28T02:52:06.858Z,19.42
2022-08-28T02:54:37.239Z,19.41
2022-08-28T02:57:06.698Z,19.45
2022-08-28T02:59:35.076Z,19.52
2022-08-28T03:02:07.100Z,19.48
2022-08-28T03:04:36.560Z,19.47
2022-08-28T03:07:07.381Z,19.40
2022-08-28T03:09:35.807Z,19.39
2022-08-28T03:12:05.142Z,19.39
2022-08-28T03:14:33.430Z,19.37
2022-08-28T03:17:01.783Z,19.39
2022-08-28T03:19:31.440Z,19.36
2022-08-28T03:21:59.754Z,19.34
2022-08-28T03:24:28.042Z,19.36
2022-08-28T03:26:56.286Z,19.34
2022-08-28T03:29:24.573Z,19.35
2022-08-28T03:31:52.907Z,19.35
2022-08-28T03:34:21.141Z,19.36
2022-08-28T03:36:50.870Z,19.36
2022-08-28T03:39:19.293Z,19.20
2022-08-28T03:41:47.575Z,19.31
2022-08-28T03:44:16.690Z,19.30
2022-08-28T03:46:44.887Z,19.31
2022-08-28T03:49:13.513Z,19.27
2022-08-28T03:51:43.151Z,19.26
2022-08-28T03:54:12.784Z,19.21
2022-08-28T03:56:43.483Z,19.20
2022-08-28T03:59:11.617Z,19.18
2022-08-28T04:01:40.493Z,19.17
2022-08-28T04:04:09.045Z,19.20
2022-08-28T04:06:38.559Z,19.18
2022-08-28T04:09:07.261Z,19.16
2022-08-28T04:11:42.512Z,19.13
2022-08-28T04:14:11.441Z,19.15
2022-08-28T04:16:39.774Z,19.20
2022-08-28T04:19:08.157Z,19.18
2022-08-28T04:21:36.432Z,19.14
2022-08-28T04:24:09.374Z,19.07
2022-08-28T04:26:39.611Z,19.06
2022-08-28T04:29:08.939Z,19.07
2022-08-28T04:31:37.710Z,19.06
2022-08-28T04:34:10.464Z,19.07
2022-08-28T04:36:39.372Z,19.14
2022-08-28T04:39:10.217Z,19.10
2022-08-28T04:41:40.069Z,19.09
2022-08-28T04:44:09.566Z,19.24
2022-08-28T04:46:38.556Z,19.08
2022-08-28T04:49:06.923Z,19.27
2022-08-28T04:51:37.837Z,19.23
2022-08-28T04:54:10.766Z,19.29
2022-08-28T04:56:41.647Z,19.36
2022-08-28T04:59:10.279Z,19.38
2022-08-28T05:01:39.107Z,19.41
2022-08-28T05:04:07.960Z,19.56
2022-08-28T05:06:36.211Z,19.58
2022-08-28T05:09:05.742Z,19.60
2022-08-28T05:11:35.208Z,19.57
2022-08-28T05:14:07.230Z,19.60
2022-08-28T05:16:42.879Z,19.63
2022-08-28T05:19:12.364Z,19.61
2022-08-28T05:21:40.610Z,19.56
2022-08-28T05:24:10.010Z,19.64
2022-08-28T05:26:40.067Z,19.61
2022-08-28T05:29:11.066Z,19.71
2022-08-28T05:31:41.755Z,19.71
2022-08-28T05:34:10.667Z,19.71
2022-08-28T05:36:40.069Z,19.71
2022-08-28T05:39:12.183Z,19.70
2022-08-28T05:41:43.414Z,19.86
2022-08-28T05:44:15.895Z,19.91
2022-08-28T05:46:48.461Z,19.95
2022-08-28T05:49:18.207Z,19.95
2022-08-28T05:51:47.286Z,20.09
2022-08-28T05:54:16.746Z,20.13
2022-08-28T05:56:46.892Z,19.93
2022-08-28T05:59:17.445Z,20.22
2022-08-28T06:01:48.591Z,20.31
2022-08-28T06:04:19.768Z,20.33
2022-08-28T06:06:49.433Z,20.49
2022-08-28T06:09:25.341Z,20.59
2022-08-28T06:11:58.783Z,20.88
2022-08-28T06:14:29.729Z,21.14
2022-08-28T06:16:59.638Z,21.35
2022-08-28T06:19:30.881Z,21.64
2022-08-28T06:22:07.007Z,21.83
2022-08-28T06:24:36.480Z,21.94
2022-08-28T06:27:04.907Z,22.16
2022-08-28T06:29:34.579Z,22.34
2022-08-28T06:32:05.395Z,22.47
2022-08-28T06:34:34.123Z,22.53
2022-08-28T06:37:02.370Z,22.60
2022-08-28T06:39:30.830Z,22.76
2022-08-28T06:41:59.046Z,22.79
2022-08-28T06:44:27.904Z,22.93
2022-08-28T06:46:57.771Z,22.94
2022-08-28T06:49:26.058Z,22.88
2022-08-28T06:51:55.932Z,22.89
2022-08-28T06:54:24.241Z,23.06
2022-08-28T06:56:53.360Z,23.19
2022-08-28T06:59:21.710Z,23.32
2022-08-28T07:01:53.610Z,23.42
2022-08-28T07:04:23.436Z,23.49
2022-08-28T07:06:54.643Z,23.65
2022-08-28T07:09:24.049Z,23.73
2022-08-28T07:11:52.505Z,23.66
2022-08-28T07:14:20.851Z,23.78
2022-08-28T07:16:49.126Z,23.82
2022-08-28T07:19:17.719Z,23.72
2022-08-28T07:21:48.154Z,23.79
2022-08-28T07:24:18.051Z,23.40
2022-08-28T07:26:47.873Z,23.39
2022-08-28T07:29:16.547Z,23.32
2022-08-28T07:31:48.256Z,23.21
2022-08-28T07:34:19.304Z,23.19
2022-08-28T07:36:51.867Z,23.37
2022-08-28T07:39:20.593Z,23.57
2022-08-28T07:41:51.894Z,23.70
2022-08-28T07:44:38.087Z,23.73
2022-08-28T07:47:08.748Z,23.87
2022-08-28T07:49:37.429Z,23.80
2022-08-28T07:52:08.307Z,23.79
2022-08-28T07:54:37.661Z,23.79
2022-08-28T07:57:07.607Z,23.63
2022-08-28T07:59:36.968Z,23.72
2022-08-28T08:02:06.552Z,23.78
2022-08-28T08:04:35.240Z,24.04
2022-08-28T08:07:06.092Z,24.28
2022-08-28T08:09:38.651Z,24.45
2022-08-28T08:12:07.969Z,24.62
2022-08-28T08:14:39.267Z,24.77
2022-08-28T08:17:08.167Z,24.86
2022-08-28T08:19:37.572Z,25.05
2022-08-28T08:22:07.299Z,24.98
2022-08-28T08:24:35.864Z,25.02
2022-08-28T08:27:06.664Z,25.01
2022-08-28T08:29:37.799Z,25.29
2022-08-28T08:32:09.094Z,25.26
2022-08-28T08:34:43.867Z,25.43
2022-08-28T08:37:14.231Z,25.30
2022-08-28T08:39:44.236Z,25.26
2022-08-28T08:42:24.545Z,25.23
2022-08-28T08:44:55.789Z,25.10
2022-08-28T08:47:32.203Z,25.12
2022-08-28T08:50:03.751Z,25.12
2022-08-28T08:52:39.911Z,24.54
2022-08-28T08:55:28.127Z,24.71
2022-08-28T08:58:06.659Z,24.82
2022-08-28T09:00:52.590Z,24.92
2022-08-28T09:03:25.593Z,24.88
2022-08-28T09:05:58.133Z,25.09
2022-08-28T09:08:38.075Z,25.03
2022-08-28T09:11:24.538Z,24.51
2022-08-28T09:14:00.334Z,24.84
2022-08-28T09:16:33.830Z,24.69
2022-08-28T09:19:02.935Z,24.38
2022-08-28T09:21:35.842Z,23.80
2022-08-28T09:24:11.002Z,23.51
2022-08-28T09:26:41.397Z,23.77
2022-08-28T09:29:18.562Z,23.85
2022-08-28T09:31:46.835Z,23.96
2022-08-28T09:34:23.941Z,24.09
2022-08-28T09:36:53.739Z,24.27
2022-08-28T09:39:26.619Z,24.54
2022-08-28T09:42:34.150Z,24.64
2022-08-28T09:45:09.441Z,24.79
2022-08-28T09:47:48.649Z,24.95
2022-08-28T09:50:27.430Z,24.54
2022-08-28T09:52:58.962Z,24.57
2022-08-28T09:55:37.669Z,24.58
2022-08-28T09:58:07.230Z,24.40
2022-08-28T10:00:39.159Z,24.32
2022-08-28T10:03:15.932Z,24.36
2022-08-28T10:06:04.129Z,24.51
2022-08-28T10:09:03.233Z,24.56
2022-08-28T10:11:52.026Z,24.58
2022-08-28T10:14:42.938Z,24.76
2022-08-28T10:17:26.792Z,24.96
2022-08-28T10:20:03.086Z,25.08
2022-08-28T10:22:42.251Z,25.06
2022-08-28T10:25:26.748Z,25.14
2022-08-28T10:28:15.322Z,25.45
2022-08-28T10:30:57.117Z,25.67
2022-08-28T10:33:50.401Z,25.62
2022-08-28T10:36:33.911Z,25.72
2022-08-28T10:39:24.604Z,25.69
2022-08-28T10:41:57.686Z,25.77
2022-08-28T10:44:35.665Z,25.57
2022-08-28T10:47:05.636Z,25.63
2022-08-28T10:49:39.239Z,25.82
2022-08-28T10:52:12.602Z,25.76
2022-08-28T10:54:47.849Z,25.44
2022-08-28T10:57:31.068Z,25.43
2022-08-28T11:00:06.591Z,25.28
2022-08-28T11:02:35.660Z,25.15
2022-08-28T11:05:05.219Z,25.03
2022-08-28T11:07:39.107Z,25.13
2022-08-28T11:10:22.935Z,25.11
2022-08-28T11:12:52.972Z,25.05
2022-08-28T11:15:47.492Z,25.25
2022-08-28T11:18:56.858Z,25.53
2022-08-28T11:21:28.909Z,25.81
2022-08-28T11:24:07.608Z,26.03
2022-08-28T11:26:47.125Z,25.98
2022-08-28T11:30:02.457Z,25.81
2022-08-28T11:33:30.755Z,25.46
2022-08-28T11:36:00.430Z,24.86
2022-08-28T11:39:06.170Z,25.42
2022-08-28T11:41:38.453Z,25.58
2022-08-28T11:44:30.321Z,25.44
2022-08-28T11:47:46.842Z,25.69
2022-08-28T11:50:34.807Z,25.73
2022-08-28T11:53:38.081Z,25.66
2022-08-28T11:56:37.809Z,25.43
2022-08-28T11:59:38.437Z,25.34
2022-08-28T12:02:49.615Z,25.51
2022-08-28T12:05:40.607Z,25.74
2022-08-28T12:08:11.912Z,25.82
2022-08-28T12:10:59.722Z,25.90
2022-08-28T12:13:49.747Z,26.03
2022-08-28T12:16:18.442Z,26.03
2022-08-28T12:19:09.254Z,25.99
2022-08-28T12:21:42.684Z,25.95
2022-08-28T12:24:22.399Z,25.89
2022-08-28T12:26:57.216Z,25.88
2022-08-28T12:29:32.054Z,25.85
2022-08-28T12:32:30.227Z,25.81
2022-08-28T12:35:20.947Z,25.73
2022-08-28T12:38:02.596Z,25.90
2022-08-28T12:40:50.229Z,26.02
2022-08-28T12:43:34.514Z,26.04
2022-08-28T12:46:06.974Z,25.88
2022-08-28T12:48:52.420Z,25.94
2022-08-28T12:51:25.661Z,26.08
2022-08-28T12:53:57.217Z,26.07
2022-08-28T12:56:29.988Z,26.06
2022-08-28T12:59:34.329Z,26.09
2022-08-28T13:02:04.715Z,26.13
2022-08-28T13:04:36.233Z,26.15
2022-08-28T13:07:11.886Z,26.22
2022-08-28T13:09:48.514Z,26.21
2022-08-28T13:12:29.031Z,26.23
2022-08-28T13:15:13.690Z,26.18
2022-08-28T13:17:54.874Z,26.20
2022-08-28T13:20:29.916Z,26.25
2022-08-28T13:22:59.157Z,26.20
2022-08-28T13:25:30.525Z,25.96
2022-08-28T13:28:02.949Z,25.85
2022-08-28T13:30:35.028Z,25.73
2022-08-28T13:33:17.348Z,25.68
2022-08-28T13:35:46.840Z,25.48
2022-08-28T13:38:18.354Z,25.44
2022-08-28T13:40:58.529Z,25.40
2022-08-28T13:43:31.295Z,25.21
2022-08-28T13:46:01.011Z,25.36
2022-08-28T13:48:30.064Z,25.27
2022-08-28T13:51:04.848Z,25.44
2022-08-28T13:53:33.663Z,25.50
2022-08-28T13:56:02.947Z,25.52
2022-08-28T13:58:31.264Z,25.46
2022-08-28T14:01:01.283Z,25.26
2022-08-28T14:03:38.577Z,25.44
2022-08-28T14:06:11.564Z,25.49
2022-08-28T14:08:41.353Z,25.62
2022-08-28T14:11:12.647Z,25.65
2022-08-28T14:13:47.151Z,25.60
2022-08-28T14:16:26.138Z,25.86
2022-08-28T14:18:54.749Z,25.88
2022-08-28T14:21:24.420Z,25.95
2022-08-28T14:23:52.827Z,25.77
2022-08-28T14:26:21.291Z,25.74
2022-08-28T14:28:49.628Z,25.70
2022-08-28T14:31:18.170Z,25.73
2022-08-28T14:33:48.222Z,25.68
2022-08-28T14:36:17.938Z,25.68
2022-08-28T14:38:46.271Z,25.75
2022-08-28T14:41:15.211Z,25.76
2022-08-28T14:43:43.509Z,25.86
2022-08-28T14:46:16.896Z,25.81
2022-08-28T14:48:45.319Z,25.84
2022-08-28T14:51:15.251Z,25.85
2022-08-28T14:53:44.411Z,25.78
2022-08-28T14:56:13.028Z,25.79
2022-08-28T14:58:41.586Z,25.81
2022-08-28T15:01:09.978Z,25.71
2022-08-28T15:03:38.343Z,25.69
2022-08-28T15:06:09.126Z,25.67
2022-08-28T15:08:39.785Z,25.71
2022-08-28T15:11:09.326Z,25.76
2022-08-28T15:13:37.878Z,25.73
2022-08-28T15:16:15.676Z,25.73
2022-08-28T15:18:46.429Z,25.64
2022-08-28T15:21:21.164Z,25.62
2022-08-28T15:23:52.851Z,25.51
2022-08-28T15:26:23.740Z,25.24
2022-08-28T15:28:55.677Z,25.41
2022-08-28T15:31:24.995Z,25.41
2022-08-28T15:33:53.556Z,25.37
2022-08-28T15:36:22.138Z,25.37
2022-08-28T15:39:09.365Z,25.28
2022-08-28T15:41:38.473Z,25.08
2022-08-28T15:44:06.859Z,25.09
2022-08-28T15:46:36.403Z,25.00
2022-08-28T15:49:07.922Z,25.01
2022-08-28T15:51:37.757Z,24.92
2022-08-28T15:54:07.560Z,24.94
2022-08-28T15:56:35.817Z,25.00
2022-08-28T15:59:04.162Z,24.92
2022-08-28T16:01:32.482Z,24.84
2022-08-28T16:04:00.933Z,24.94
2022-08-28T16:06:29.879Z,24.99
2022-08-28T16:08:58.596Z,24.96
2022-08-28T16:11:28.688Z,25.00
2022-08-28T16:14:04.560Z,24.99
2022-08-28T16:16:33.679Z,25.08
2022-08-28T16:19:02.123Z,25.01
2022-08-28T16:21:30.489Z,24.94
2022-08-28T16:23:59.116Z,24.91
2022-08-28T16:26:29.364Z,24.92
2022-08-28T16:28:57.832Z,24.93
2022-08-28T16:31:27.136Z,24.97
2022-08-28T16:33:55.506Z,25.03
2022-08-28T16:36:25.195Z,24.96
2022-08-28T16:39:00.396Z,24.96
2022-08-28T16:41:33.551Z,24.94
2022-08-28T16:44:01.887Z,24.90
2022-08-28T16:46:30.566Z,24.75
2022-08-28T16:48:59.645Z,24.85
2022-08-28T16:51:29.430Z,24.79
2022-08-28T16:53:58.634Z,24.73
2022-08-28T16:56:26.908Z,24.64
2022-08-28T16:58:57.021Z,24.61
2022-08-28T17:01:25.766Z,24.64
2022-08-28T17:03:55.378Z,24.59
2022-08-28T17:06:27.268Z,24.57
2022-08-28T17:08:57.297Z,24.48
2022-08-28T17:11:26.796Z,24.43
2022-08-28T17:13:57.306Z,24.40
2022-08-28T17:16:26.318Z,24.29
2022-08-28T17:18:54.714Z,24.23
2022-08-28T17:21:41.408Z,24.10
2022-08-28T17:24:12.437Z,24.05
2022-08-28T17:26:41.224Z,23.94
2022-08-28T17:29:11.564Z,23.73
2022-08-28T17:31:40.039Z,23.72
2022-08-28T17:34:08.621Z,23.70
2022-08-28T17:36:38.655Z,23.71
2022-08-28T17:39:11.537Z,23.69
2022-08-28T17:41:41.609Z,23.63
2022-08-28T17:44:11.805Z,23.59
2022-08-28T17:46:40.160Z,23.54
2022-08-28T17:49:09.229Z,23.50
2022-08-28T17:51:42.331Z,23.45
2022-08-28T17:54:13.502Z,23.45
2022-08-28T17:56:42.025Z,23.45
2022-08-28T17:59:12.489Z,23.44
2022-08-28T18:01:42.646Z,23.47
2022-08-28T18:04:11.218Z,23.33
2022-08-28T18:06:40.349Z,23.32
2022-08-28T18:09:10.272Z,23.02
2022-08-28T18:11:39.109Z,23.30
2022-08-28T18:14:10.854Z,23.28
2022-08-28T18:16:40.057Z,23.19
2022-08-28T18:19:10.656Z,23.26
2022-08-28T18:21:39.325Z,23.23
2022-08-28T18:24:08.847Z,23.26
2022-08-28T18:26:37.432Z,23.22
2022-08-28T18:29:06.336Z,23.20
2022-08-28T18:31:36.112Z,23.26
2022-08-28T18:34:04.606Z,23.20
2022-08-28T18:36:32.866Z,23.21
2022-08-28T18:39:04.217Z,23.20
2022-08-28T18:41:35.745Z,23.21
2022-08-28T18:44:14.138Z,23.21
2022-08-28T18:46:44.939Z,23.15
2022-08-28T18:49:14.130Z,23.09
2022-08-28T18:51:44.218Z,23.07
2022-08-28T18:54:14.414Z,23.09
2022-08-28T18:56:45.449Z,23.05
2022-08-28T18:59:13.824Z,23.04
2022-08-28T19:01:43.872Z,22.98
2022-08-28T19:04:12.414Z,22.99
2022-08-28T19:06:42.553Z,22.97
2022-08-28T19:09:19.360Z,22.97
2022-08-28T19:11:49.271Z,22.96
2022-08-28T19:14:17.729Z,22.89
2022-08-28T19:16:47.650Z,22.89
2022-08-28T19:19:16.333Z,22.85
2022-08-28T19:21:44.572Z,22.84
2022-08-28T19:24:16.352Z,22.77
2022-08-28T19:26:44.867Z,22.85
2022-08-28T19:29:13.773Z,22.87
2022-08-28T19:31:42.577Z,22.80
2022-08-28T19:34:13.016Z,22.84
2022-08-28T19:36:41.730Z,22.84
2022-08-28T19:39:09.983Z,22.81
2022-08-28T19:41:38.839Z,22.83
2022-08-28T19:44:08.278Z,22.73
2022-08-28T19:46:38.801Z,22.66
2022-08-28T19:49:07.828Z,22.74
2022-08-28T19:51:39.960Z,22.72
2022-08-28T19:54:11.111Z,22.71
2022-08-28T19:56:40.011Z,22.71
2022-08-28T19:59:10.503Z,22.74
2022-08-28T20:01:43.655Z,22.68
2022-08-28T20:04:13.435Z,22.60
2022-08-28T20:06:43.498Z,22.62
2022-08-28T20:09:13.048Z,22.65
2022-08-28T20:11:45.032Z,22.63
2022-08-28T20:14:14.451Z,22.58
2022-08-28T20:16:45.294Z,22.61
2022-08-28T20:19:14.583Z,22.58
2022-08-28T20:21:47.122Z,22.53
2022-08-28T20:24:20.291Z,22.38
2022-08-28T20:26:49.330Z,22.49
2022-08-28T20:29:18.695Z,22.48
2022-08-28T20:31:49.143Z,22.46
2022-08-28T20:34:19.958Z,22.41
2022-08-28T20:36:50.679Z,22.43
2022-08-28T20:39:19.674Z,22.40
2022-08-28T20:41:49.225Z,22.40
2022-08-28T20:44:21.009Z,22.36
2022-08-28T20:46:51.528Z,22.37
2022-08-28T20:49:22.488Z,22.34
2022-08-28T20:51:56.717Z,22.31
2022-08-28T20:54:30.033Z,22.26
2022-08-28T20:57:02.973Z,22.25
2022-08-28T20:59:34.562Z,22.17
2022-08-28T21:02:10.946Z,22.07
2022-08-28T21:04:40.041Z,22.23
2022-08-28T21:07:12.932Z,22.29
2022-08-28T21:10:05.739Z,22.22
2022-08-28T21:12:29.841Z,22.17
2022-08-28T21:14:59.673Z,22.15
2022-08-28T21:17:30.217Z,22.11
2022-08-28T21:20:02.964Z,22.03
2022-08-28T21:22:35.254Z,22.03
2022-08-28T21:25:05.718Z,21.97
2022-08-28T21:27:34.110Z,21.93
2022-08-28T21:30:02.809Z,21.87
2022-08-28T21:32:33.914Z,21.81
2022-08-28T21:35:02.519Z,21.82
2022-08-28T21:37:31.229Z,21.66
2022-08-28T21:40:01.787Z,21.64
2022-08-28T21:42:30.464Z,21.67
2022-08-28T21:44:58.937Z,21.63
2022-08-28T21:47:27.582Z,21.62
2022-08-28T21:49:58.163Z,21.61
2022-08-28T21:52:28.385Z,21.53
2022-08-28T21:55:00.507Z,21.46
2022-08-28T21:57:29.968Z,21.46
2022-08-28T21:59:58.667Z,21.44
2022-08-28T22:02:27.554Z,21.48
2022-08-28T22:04:55.982Z,21.44
2022-08-28T22:07:25.201Z,21.43
2022-08-28T22:09:53.652Z,21.36
2022-08-28T22:12:23.388Z,21.27
2022-08-28T22:14:52.048Z,21.33
2022-08-28T22:17:20.681Z,21.28
2022-08-28T22:19:48.942Z,21.26
2022-08-28T22:22:35.642Z,21.25
2022-08-28T22:25:05.838Z,21.22
2022-08-28T22:27:35.599Z,21.23
2022-08-28T22:30:04.882Z,21.18
2022-08-28T22:32:33.374Z,21.19
2022-08-28T22:35:01.751Z,21.19
2022-08-28T22:37:30.115Z,21.12
2022-08-28T22:39:59.217Z,21.08
2022-08-28T22:42:27.508Z,21.11
2022-08-28T22:44:57.233Z,21.07
2022-08-28T22:47:25.651Z,21.08
2022-08-28T22:49:58.360Z,21.07
2022-08-28T22:52:27.041Z,21.05
2022-08-28T22:54:55.411Z,21.05
2022-08-28T22:57:23.951Z,20.96
2022-08-28T22:59:52.308Z,21.00
2022-08-28T23:02:27.133Z,21.02
2022-08-28T23:04:55.967Z,20.97
2022-08-28T23:07:24.281Z,20.90
2022-08-28T23:09:52.601Z,20.83
2022-08-28T23:12:20.964Z,20.83
2022-08-28T23:14:49.437Z,20.86
2022-08-28T23:17:18.696Z,20.55
2022-08-28T23:19:49.111Z,20.64
2022-08-28T23:22:19.187Z,20.58
2022-08-28T23:24:48.796Z,20.66
2022-08-28T23:27:36.090Z,20.43
2022-08-28T23:30:07.757Z,20.58
2022-08-28T23:32:36.097Z,20.58
2022-08-28T23:35:08.172Z,20.52
2022-08-28T23:37:38.665Z,20.49
2022-08-28T23:40:11.610Z,20.44
2022-08-28T23:42:40.687Z,20.13
2022-08-28T23:45:10.740Z,20.51
2022-08-28T23:47:40.679Z,20.47
2022-08-28T23:50:15.838Z,20.36
2022-08-28T23:52:44.672Z,20.53
2022-08-28T23:55:14.685Z,20.42
2022-08-28T23:57:44.051Z,20.41
